createdAt,value
2019-01-21T00:01:36.194Z,-2.66
2019-01-21T00:04:07.221Z,-2.87
2019-01-21T00:06:43.552Z,-2.79
2019-01-21T00:09:14.186Z,-2.78
2019-01-21T00:11:46.280Z,-2.79
2019-01-21T00:14:17.390Z,-2.80
2019-01-21T00:16:47.794Z,-2.76
2019-01-21T00:19:18.141Z,-2.83
2019-01-21T00:21:48.818Z,-2.85
2019-01-21T00:24:19.402Z,-2.85
2019-01-21T00:26:49.895Z,-2.96
2019-01-21T00:29:32.142Z,-2.91
2019-01-21T00:32:02.746Z,-2.97
2019-01-21T00:37:37.457Z,-3.05
2019-01-21T00:40:09.236Z,-3.10
2019-01-21T00:42:39.640Z,-3.13
2019-01-21T00:45:21.450Z,-3.09
2019-01-21T00:47:51.799Z,-3.10
2019-01-21T00:50:22.110Z,-3.23
2019-01-21T00:55:34.928Z,-3.19
2019-01-21T00:58:05.603Z,-3.30
2019-01-21T01:00:36.168Z,-3.29
2019-01-21T01:03:06.560Z,-3.35
2019-01-21T01:05:37.109Z,-3.22
2019-01-21T01:08:07.741Z,-3.25
2019-01-21T01:10:38.259Z,-3.22
2019-01-21T01:13:09.218Z,-3.18
2019-01-21T01:15:40.144Z,-3.18
2019-01-21T01:18:12.211Z,-3.31
2019-01-21T01:20:42.560Z,-3.26
2019-01-21T01:23:12.924Z,-3.21
2019-01-21T01:25:43.444Z,-3.34
2019-01-21T01:28:14.444Z,-3.28
2019-01-21T01:30:44.781Z,-3.39
2019-01-21T01:33:15.825Z,-3.36
2019-01-21T01:35:46.147Z,-3.37
2019-01-21T01:38:16.448Z,-3.46
2019-01-21T01:40:46.837Z,-3.64
2019-01-21T01:43:17.495Z,-3.64
2019-01-21T01:45:47.960Z,-3.52
2019-01-21T01:48:18.385Z,-3.54
2019-01-21T01:53:30.706Z,-3.67
2019-01-21T01:56:01.151Z,-3.67
2019-01-21T01:58:31.533Z,-3.76
2019-01-21T02:01:02.073Z,-3.83
2019-01-21T02:03:32.573Z,-3.84
2019-01-21T02:06:02.871Z,-3.84
2019-01-21T02:08:33.270Z,-3.82
2019-01-21T02:11:03.603Z,-3.79
2019-01-21T02:13:33.972Z,-3.95
2019-01-21T02:16:23.294Z,-4.08
2019-01-21T02:18:53.571Z,-4.03
2019-01-21T02:22:03.368Z,-4.01
2019-01-21T02:24:36.955Z,-4.05
2019-01-21T02:27:45.505Z,-4.08
2019-01-21T02:30:40.546Z,-4.12
2019-01-21T02:33:59.906Z,-4.21
2019-01-21T02:36:53.786Z,-4.23
2019-01-21T02:40:02.966Z,-4.28
2019-01-21T02:43:11.504Z,-4.35
2019-01-21T02:46:19.986Z,-4.45
2019-01-21T02:49:28.896Z,-4.48
2019-01-21T02:52:27.235Z,-4.48
2019-01-21T02:55:24.479Z,-4.50
2019-01-21T02:58:33.039Z,-4.46
2019-01-21T03:01:41.489Z,-4.45
2019-01-21T03:04:50.033Z,-4.39
2019-01-21T03:07:45.935Z,-4.34
2019-01-21T03:10:54.473Z,-4.25
2019-01-21T03:14:10.484Z,-4.20
2019-01-21T03:17:11.193Z,-4.16
2019-01-21T03:20:19.682Z,-4.10
2019-01-21T03:23:28.155Z,-4.10
2019-01-21T03:26:09.770Z,-3.99
2019-01-21T03:29:18.566Z,-3.96
2019-01-21T03:32:27.093Z,-3.99
2019-01-21T03:35:23.298Z,-3.92
2019-01-21T03:38:31.710Z,-3.87
2019-01-21T03:41:40.409Z,-3.91
2019-01-21T03:44:48.862Z,-3.77
2019-01-21T03:47:57.493Z,-3.80
2019-01-21T03:51:05.919Z,-3.78
2019-01-21T03:54:02.149Z,-3.84
2019-01-21T03:57:12.306Z,-3.87
2019-01-21T04:00:07.041Z,-3.87
2019-01-21T04:03:15.455Z,-3.78
2019-01-21T04:06:24.025Z,-3.75
2019-01-21T04:09:32.457Z,-3.71
2019-01-21T04:12:28.588Z,-3.69
2019-01-21T04:15:38.679Z,-3.74
2019-01-21T04:18:47.220Z,-3.82
2019-01-21T04:21:29.420Z,-3.75
2019-01-21T04:24:38.187Z,-3.67
2019-01-21T04:27:46.608Z,-3.65
2019-01-21T04:30:55.037Z,-3.69
2019-01-21T04:34:03.697Z,-3.69
2019-01-21T04:37:12.280Z,-3.65
2019-01-21T04:40:20.690Z,-3.58
2019-01-21T04:43:29.125Z,-3.54
2019-01-21T04:46:32.021Z,-3.47
2019-01-21T04:49:40.428Z,-3.39
2019-01-21T04:52:49.793Z,-3.27
2019-01-21T04:59:12.395Z,-3.24
2019-01-21T05:02:26.158Z,-3.23
2019-01-21T05:05:35.325Z,-3.15
2019-01-21T05:08:43.859Z,-3.19
2019-01-21T05:11:52.677Z,-3.20
2019-01-21T05:15:10.169Z,-3.18
2019-01-21T05:18:19.375Z,-3.14
2019-01-21T05:21:29.398Z,-3.09
2019-01-21T05:24:37.967Z,-3.09
2019-01-21T05:27:46.412Z,-3.08
2019-01-21T05:33:46.198Z,-3.05
2019-01-21T05:36:57.509Z,-2.99
2019-01-21T05:39:53.040Z,-3.10
2019-01-21T05:43:04.283Z,-3.11
2019-01-21T05:46:12.725Z,-3.05
2019-01-21T05:49:21.129Z,-2.91
2019-01-21T05:55:47.988Z,-2.83
2019-01-21T05:58:30.151Z,-2.82
2019-01-21T06:01:55.159Z,-2.87
2019-01-21T06:05:03.606Z,-2.82
2019-01-21T06:08:12.080Z,-2.85
2019-01-21T06:11:08.103Z,-2.84
2019-01-21T06:14:03.541Z,-2.78
2019-01-21T06:17:12.236Z,-2.76
2019-01-21T06:20:20.775Z,-2.82
2019-01-21T06:23:17.029Z,-2.86
2019-01-21T06:26:25.789Z,-2.84
2019-01-21T06:29:34.182Z,-2.86
2019-01-21T06:32:42.730Z,-2.86
2019-01-21T06:35:35.663Z,-2.86
2019-01-21T06:38:29.426Z,-2.84
2019-01-21T06:41:26.335Z,-2.83
2019-01-21T06:44:34.875Z,-2.78
2019-01-21T06:47:43.380Z,-2.71
2019-01-21T06:50:51.996Z,-2.74
2019-01-21T06:53:54.375Z,-2.77
2019-01-21T07:00:18.895Z,-2.87
2019-01-21T07:03:28.153Z,-2.89
2019-01-21T07:06:36.655Z,-2.93
2019-01-21T07:09:45.255Z,-2.93
2019-01-21T07:12:27.632Z,-2.89
2019-01-21T07:15:38.031Z,-2.86
2019-01-21T07:18:47.523Z,-2.84
2019-01-21T07:21:57.844Z,-2.77
2019-01-21T07:25:06.986Z,-2.65
2019-01-21T07:28:16.535Z,-2.64
2019-01-21T07:31:31.098Z,-2.55
2019-01-21T07:34:14.361Z,-2.71
2019-01-21T07:37:31.735Z,-2.62
2019-01-21T07:40:41.249Z,-2.60
2019-01-21T07:47:19.518Z,-2.50
2019-01-21T07:50:12.497Z,-2.45
2019-01-21T07:53:21.831Z,-2.39
2019-01-21T07:56:32.576Z,-2.40
2019-01-21T07:59:42.093Z,-2.44
2019-01-21T08:02:38.514Z,-2.49
2019-01-21T08:05:48.193Z,-2.42
2019-01-21T08:08:58.792Z,-2.37
2019-01-21T08:12:08.616Z,-2.31
2019-01-21T08:15:17.693Z,-2.34
2019-01-21T08:21:38.809Z,-2.26
2019-01-21T08:24:47.938Z,-2.22
2019-01-21T08:27:58.722Z,-2.12
2019-01-21T08:31:09.560Z,-2.11
2019-01-21T08:34:18.630Z,-2.10
2019-01-21T08:37:13.324Z,-2.08
2019-01-21T08:43:31.089Z,-2.02
2019-01-21T08:49:56.335Z,-1.89
2019-01-21T08:52:52.699Z,-1.84
2019-01-21T08:56:01.175Z,-1.82
2019-01-21T08:59:09.674Z,-1.76
2019-01-21T09:02:18.069Z,-1.69
2019-01-21T09:05:26.509Z,-1.68
2019-01-21T09:08:37.646Z,-1.66
2019-01-21T09:11:45.164Z,-1.60
2019-01-21T09:14:27.354Z,-1.49
2019-01-21T09:17:41.125Z,-1.54
2019-01-21T09:20:49.571Z,-1.53
2019-01-21T09:23:58.102Z,-1.41
2019-01-21T09:27:06.509Z,-1.35
2019-01-21T09:30:15.024Z,-1.21
2019-01-21T09:33:23.462Z,-1.11
2019-01-21T09:36:05.635Z,-1.17
2019-01-21T09:39:14.147Z,-1.00
2019-01-21T09:42:09.536Z,-0.96
2019-01-21T09:45:02.677Z,-0.96
2019-01-21T09:50:13.869Z,-0.87
2019-01-21T09:53:23.863Z,-0.76
2019-01-21T09:55:55.391Z,-0.61
2019-01-21T09:58:25.736Z,-0.65
2019-01-21T10:01:37.537Z,-0.62
2019-01-21T10:07:38.485Z,-0.74
2019-01-21T10:10:46.888Z,-0.74
2019-01-21T10:13:55.337Z,-0.67
2019-01-21T10:17:03.859Z,-0.63
2019-01-21T10:20:12.425Z,-0.57
2019-01-21T10:23:06.161Z,-0.47
2019-01-21T10:26:14.718Z,-0.43
2019-01-21T10:29:06.591Z,-0.29
2019-01-21T10:32:16.800Z,-0.20
2019-01-21T10:35:25.304Z,0.05
2019-01-21T10:38:07.621Z,0.09
2019-01-21T10:41:16.142Z,0.19
2019-01-21T10:44:24.670Z,0.12
2019-01-21T10:47:33.117Z,0.34
2019-01-21T10:53:49.391Z,0.92
2019-01-21T10:57:00.044Z,0.99
2019-01-21T11:00:08.499Z,0.80
2019-01-21T11:03:02.708Z,0.71
2019-01-21T11:06:21.352Z,0.73
2019-01-21T11:09:26.607Z,0.86
2019-01-21T11:12:30.018Z,0.83
2019-01-21T11:15:22.610Z,1.02
2019-01-21T11:18:31.039Z,1.11
2019-01-21T11:21:33.360Z,1.13
2019-01-21T11:24:41.793Z,1.12
2019-01-21T11:27:51.723Z,1.04
2019-01-21T11:30:53.826Z,1.15
2019-01-21T11:34:02.582Z,1.14
2019-01-21T11:37:11.068Z,1.26
2019-01-21T11:40:19.588Z,1.34
2019-01-21T11:43:29.304Z,1.50
2019-01-21T11:46:32.974Z,1.58
2019-01-21T11:49:26.591Z,1.50
2019-01-21T11:52:37.314Z,1.60
2019-01-21T11:55:49.851Z,1.67
2019-01-21T11:58:58.617Z,1.67
2019-01-21T12:02:07.817Z,1.67
2019-01-21T12:05:01.384Z,1.71
2019-01-21T12:14:33.639Z,1.55
2019-01-21T12:17:15.327Z,1.80
2019-01-21T12:19:56.809Z,1.95
2019-01-21T12:23:05.245Z,1.82
2019-01-21T12:26:13.856Z,1.96
2019-01-21T12:29:07.483Z,1.90
2019-01-21T12:31:50.633Z,2.03
2019-01-21T12:34:59.134Z,2.08
2019-01-21T12:37:52.913Z,2.07
2019-01-21T12:40:39.542Z,2.03
2019-01-21T12:43:48.010Z,2.01
2019-01-21T12:46:43.046Z,2.01
2019-01-21T12:49:51.878Z,1.92
2019-01-21T12:52:43.913Z,2.11
2019-01-21T12:55:52.420Z,2.27
2019-01-21T12:58:34.164Z,2.35
2019-01-21T13:01:42.772Z,2.49
2019-01-21T13:04:51.532Z,2.36
2019-01-21T13:08:00.029Z,2.35
2019-01-21T13:10:54.495Z,2.36
2019-01-21T13:13:49.430Z,2.18
2019-01-21T13:16:58.196Z,2.24
2019-01-21T13:23:01.801Z,2.39
2019-01-21T13:26:10.299Z,2.45
2019-01-21T13:29:02.175Z,2.38
2019-01-21T13:32:10.615Z,2.19
2019-01-21T13:35:19.055Z,2.12
2019-01-21T13:38:14.815Z,2.19
2019-01-21T13:41:12.240Z,2.32
2019-01-21T13:44:11.231Z,2.36
2019-01-21T13:47:19.900Z,2.49
2019-01-21T13:53:37.836Z,2.59
2019-01-21T13:56:33.735Z,2.60
2019-01-21T13:59:43.075Z,2.51
2019-01-21T14:02:51.501Z,2.49
2019-01-21T14:06:00.266Z,2.49
2019-01-21T14:09:08.786Z,2.50
2019-01-21T14:11:57.058Z,2.49
2019-01-21T14:15:00.478Z,2.48
2019-01-21T14:18:15.221Z,2.48
2019-01-21T14:21:11.213Z,2.44
2019-01-21T14:24:30.335Z,2.40
2019-01-21T14:27:38.872Z,2.40
2019-01-21T14:30:35.218Z,2.40
2019-01-21T14:33:30.506Z,2.42
2019-01-21T14:36:25.850Z,2.45
2019-01-21T14:39:21.621Z,2.47
2019-01-21T14:42:30.059Z,2.50
2019-01-21T14:52:13.175Z,2.40
2019-01-21T14:55:08.549Z,2.36
2019-01-21T14:58:17.014Z,2.35
2019-01-21T15:01:15.936Z,2.37
2019-01-21T15:04:17.794Z,2.33
2019-01-21T15:10:39.361Z,2.34
2019-01-21T15:13:36.222Z,2.29
2019-01-21T15:16:38.221Z,2.37
2019-01-21T15:19:46.858Z,2.40
2019-01-21T15:22:40.382Z,2.42
2019-01-21T15:25:48.813Z,2.40
2019-01-21T15:28:57.400Z,2.46
2019-01-21T15:32:06.728Z,2.47
2019-01-21T15:35:15.649Z,2.52
2019-01-21T15:38:30.624Z,2.49
2019-01-21T15:41:39.236Z,2.45
2019-01-21T15:44:48.434Z,2.43
2019-01-21T15:47:57.132Z,2.40
2019-01-21T15:51:04.992Z,2.41
2019-01-21T15:54:04.656Z,2.41
2019-01-21T15:57:13.090Z,2.38
2019-01-21T16:00:21.645Z,2.39
2019-01-21T16:03:17.258Z,2.35
2019-01-21T16:06:25.871Z,2.33
2019-01-21T16:09:34.241Z,2.32
2019-01-21T16:12:42.906Z,2.36
2019-01-21T16:15:37.232Z,2.39
2019-01-21T16:21:57.613Z,2.52
2019-01-21T16:25:06.232Z,2.53
2019-01-21T16:28:14.853Z,2.58
2019-01-21T16:31:00.179Z,2.65
2019-01-21T16:33:55.205Z,2.66
2019-01-21T16:37:03.734Z,2.68
2019-01-21T16:42:44.221Z,2.73
2019-01-21T16:45:15.773Z,2.73
2019-01-21T16:47:46.575Z,2.74
2019-01-21T16:50:36.903Z,2.69
2019-01-21T16:53:07.139Z,2.70
2019-01-21T16:55:37.772Z,2.68
2019-01-21T17:00:50.255Z,2.70
2019-01-21T17:03:22.375Z,2.62
2019-01-21T17:05:52.729Z,2.58
2019-01-21T17:08:23.410Z,2.58
2019-01-21T17:10:53.879Z,2.72
2019-01-21T17:13:24.236Z,2.68
2019-01-21T17:15:54.707Z,2.74
2019-01-21T17:18:44.360Z,2.46
2019-01-21T17:21:14.776Z,2.44
2019-01-21T17:23:45.219Z,2.50
2019-01-21T17:26:15.904Z,2.63
2019-01-21T17:28:46.336Z,2.63
2019-01-21T17:31:16.777Z,2.72
2019-01-21T17:33:47.259Z,2.72
2019-01-21T17:36:17.628Z,2.70
2019-01-21T17:38:48.085Z,2.76
2019-01-21T17:41:18.719Z,2.76
2019-01-21T17:43:58.781Z,2.67
2019-01-21T17:46:30.843Z,2.74
2019-01-21T17:49:01.507Z,2.77
2019-01-21T17:51:35.400Z,2.79
2019-01-21T17:54:06.722Z,2.74
2019-01-21T17:56:36.923Z,2.75
2019-01-21T17:59:07.542Z,2.76
2019-01-21T18:01:39.402Z,2.78
2019-01-21T18:04:16.122Z,2.75
2019-01-21T18:06:46.463Z,2.74
2019-01-21T18:09:16.925Z,2.71
2019-01-21T18:11:47.556Z,2.68
2019-01-21T18:14:17.960Z,2.73
2019-01-21T18:16:48.281Z,2.72
2019-01-21T18:19:18.709Z,2.76
2019-01-21T18:21:49.170Z,2.78
2019-01-21T18:24:31.516Z,2.81
2019-01-21T18:27:02.419Z,2.80
2019-01-21T18:29:32.656Z,2.76
2019-01-21T18:32:02.926Z,2.82
2019-01-21T18:34:33.336Z,2.83
2019-01-21T18:40:28.953Z,2.85
2019-01-21T18:42:59.279Z,2.86
2019-01-21T18:45:29.686Z,2.88
2019-01-21T18:48:00.029Z,2.90
2019-01-21T18:50:30.672Z,2.91
2019-01-21T18:53:01.815Z,2.86
2019-01-21T18:55:32.197Z,2.84
2019-01-21T18:58:04.116Z,2.83
2019-01-21T19:00:34.420Z,2.84
2019-01-21T19:05:48.785Z,2.84
2019-01-21T19:11:22.679Z,2.83
2019-01-21T19:16:38.827Z,2.89
2019-01-21T19:19:09.737Z,2.86
2019-01-21T19:21:39.979Z,2.83
2019-01-21T19:24:30.898Z,2.83
2019-01-21T19:27:12.870Z,2.82
2019-01-21T19:32:25.833Z,2.83
2019-01-21T19:37:38.805Z,2.79
2019-01-21T19:40:12.649Z,2.86
2019-01-21T19:43:02.590Z,2.85
2019-01-21T19:45:33.230Z,2.89
2019-01-21T19:48:03.827Z,2.82
2019-01-21T19:50:34.163Z,2.84
2019-01-21T19:53:24.014Z,2.82
2019-01-21T19:55:54.318Z,2.80
2019-01-21T19:58:24.583Z,2.76
2019-01-21T20:00:55.198Z,2.76
2019-01-21T20:03:25.516Z,2.71
2019-01-21T20:05:57.445Z,2.72
2019-01-21T20:08:28.031Z,2.73
2019-01-21T20:10:58.463Z,2.74
2019-01-21T20:13:28.693Z,2.75
2019-01-21T20:19:03.396Z,2.77
2019-01-21T20:21:34.106Z,2.82
2019-01-21T20:24:04.384Z,2.77
2019-01-21T20:26:34.694Z,2.81
2019-01-21T20:29:06.326Z,2.81
2019-01-21T20:31:39.309Z,2.84
2019-01-21T20:34:10.170Z,2.77
2019-01-21T20:39:22.829Z,2.70
2019-01-21T20:41:55.034Z,2.74
2019-01-21T20:44:25.294Z,2.72
2019-01-21T20:46:55.746Z,2.69
2019-01-21T20:49:33.030Z,2.72
2019-01-21T20:52:03.485Z,2.75
2019-01-21T20:54:33.847Z,2.74
2019-01-21T20:57:04.323Z,2.69
2019-01-21T20:59:35.337Z,2.68
2019-01-21T21:04:55.320Z,2.72
2019-01-21T21:07:25.670Z,2.74
2019-01-21T21:09:56.044Z,2.70
2019-01-21T21:12:26.653Z,2.77
2019-01-21T21:14:56.988Z,2.74
2019-01-21T21:17:27.345Z,2.66
2019-01-21T21:19:57.546Z,2.76
2019-01-21T21:22:27.785Z,2.85
2019-01-21T21:24:58.106Z,2.83
2019-01-21T21:27:39.210Z,2.92
2019-01-21T21:30:33.433Z,2.77
2019-01-21T21:35:47.995Z,2.82
2019-01-21T21:38:18.434Z,2.90
2019-01-21T21:40:48.689Z,2.70
2019-01-21T21:43:44.714Z,2.74
2019-01-21T21:46:14.919Z,2.62
2019-01-21T21:48:45.550Z,2.59
2019-01-21T21:51:26.503Z,2.58
2019-01-21T21:53:57.032Z,2.55
2019-01-21T21:56:27.253Z,2.58
2019-01-21T21:58:57.687Z,2.61
2019-01-21T22:01:40.209Z,2.68
2019-01-21T22:07:00.951Z,2.82
2019-01-21T22:09:31.482Z,2.94
2019-01-21T22:12:01.732Z,2.97
2019-01-21T22:14:32.019Z,2.75
2019-01-21T22:17:02.420Z,2.75
2019-01-21T22:19:32.773Z,2.71
2019-01-21T22:22:03.039Z,2.59
2019-01-21T22:24:33.318Z,2.40
2019-01-21T22:27:03.765Z,2.52
2019-01-21T22:29:34.114Z,2.51
2019-01-21T22:34:46.443Z,2.39
2019-01-21T22:37:17.146Z,2.29
2019-01-21T22:39:48.056Z,2.22
2019-01-21T22:42:28.898Z,2.21
2019-01-21T22:44:59.213Z,2.20
2019-01-21T22:47:29.489Z,2.18
2019-01-21T22:50:00.248Z,2.12
2019-01-21T22:52:42.229Z,2.15
2019-01-21T22:55:22.594Z,2.15
2019-01-21T22:57:53.267Z,2.18
2019-01-21T23:03:29.208Z,2.10
2019-01-21T23:06:01.168Z,2.07
2019-01-21T23:08:31.524Z,1.98
2019-01-21T23:11:02.106Z,1.91
2019-01-21T23:13:32.459Z,1.86
2019-01-21T23:16:02.889Z,1.84
2019-01-21T23:18:33.266Z,1.84
2019-01-21T23:21:15.041Z,1.82
2019-01-21T23:23:45.486Z,1.85
2019-01-21T23:26:15.717Z,1.86
2019-01-21T23:28:46.017Z,1.83
2019-01-21T23:34:20.790Z,1.97
2019-01-21T23:36:51.268Z,1.82
2019-01-21T23:39:41.001Z,1.90
2019-01-21T23:42:11.366Z,1.92
2019-01-21T23:44:52.148Z,1.90
2019-01-21T23:50:17.513Z,1.92
2019-01-21T23:55:30.728Z,1.91
2019-01-21T23:58:01.032Z,1.93
